Northern & Central Napa County

32 Stations

15 Minute Data | America/Los_Angeles
as of 5/5/26 9:42 PM PDT
Station Date Time Temp (°F) RH (%) Dew Pt (°F) Wind Spd (mph) Wind Dir (°) Wind Gust (mph) Latest Rain (In) Daily Rain (In) Daily Max Temp (°F) Daily Min Temp (°F)
Calistoga-North 5/5/26 2130 57.8   4.6 80   19 51.6   1.1 - - - 0.00 0.02 66.8   3.4 51.9   3.7
Stags Leap Dist (Chimney Rock) 5/5/26 2130 58.7   5.5 79   19 52.1   0.4 3.1   1.6 ESE | 119 6.9   4.2 0.00 0.01 66.8   1.6 52.9   10.1
Diamond Mtn (McEachran) 5/5/26 2130 56.7   4.3 73   24 48.3   3.3 - - - - - 63.5   1.1 51.1   3.7
Diamond Mtn (Schramsberg) 5/5/26 2130 54.9   3.9 77   23 47.9   3.1 - - - 0.00 0.01 65.1   1.0 49.8   2.4
Stags Leap Dist (Silverado Vineyards) 5/5/26 2130 58.1   6.0 73   21 49.4   0.9 2.5   0.9 E | 82 5.9   1.5 0.00 0.02 67.4   2.4 51.9   8.3
Oak Knoll-East (Ranch 53) 5/5/26 2130 58.9   5.3 75   18 50.9   0.8 0.8   0.5 ESE | 121 3.1   1.5 0.00 0.02 67.9   2.4 52.5   8.7
Rutherford-North (Mee Ln) 5/5/26 2130 58.5   7.5 76   19 51.0   1.4 0.5   1.4 ESE | 117 2.0   1.3 0.00 0.02 71.1   2.3 47.7   6.4
Frisinger Napa-NW 5/5/26 2130 58.4   5.0 79   15 52.1   0.3 1.0   0.4 WSW | 254 2.6   0.8 0.00 0.02 66.7   0.8 52.8   8.0
Napa-North (Ranch 29) 5/5/26 2130 58.1   5.6 76   24 50.4   2.0 0.8   0.2 SE | 137 2.8   0.9 0.00 0.02 66.0   1.3 52.1   7.7
St. Helena (NVV Office) 5/5/26 2130 59.2   5.2 - - 1.2   0.6 WNW | 291 4.2   2.2 0.00 0.02 70.8   0.7 52.9   6.8
Crossroads Ranch 5/5/26 2130 58.5   4.8 73   18 50.0   1.2 4.1   2.5 SSE | 156 6.7   3.9 0.00 0.01 68.4   1.8 52.7   9.1
Oakville 5/5/26 2130 58.4   5.1 71   24 49.2   2.8 2.9   1.5 S | 174 5.4   2.2 0.00 0.16 68.1   1.2 52.4   8.8
OV561-East 5/5/26 2130 58.2   4.9 - - - - - - - 68.8   2.5 52.7   8.5
OV518-West 5/5/26 2130 58.4   5.2 - - - - - - - 67.9   1.3 52.5   8.9
Napa-NW (Ranch 54) 5/5/26 2130 59.0   5.3 75   25 51.1   2.5 0.6   0.6 W | 264 2.3   1.7 0.00 0.01 69.5   0.5 52.9   7.6
Calistoga (Ranch 78) 5/5/26 2130 57.8   3.9 75   19 49.9   2.3 1.1   0.5 N | 356 3.5   1.1 0.00 0.02 67.2   1.3 52.6   6.1
Yountville-SE (Ranch 85) 5/5/26 2130 58.6   5.1 77   20 51.3   1.2 3.2   1.8 SSE | 157 5.7   2.8 0.00 0.01 67.4   1.9 52.6   8.8
Yountville-South (Ranch 87) 5/5/26 2130 58.6   5.7 78   22 51.7   1.2 1.7   0.6 ESE | 114 4.5   1.0 0.00 0.02 68.0   2.5 52.5   8.9
Rutherford Hill Estate 5/5/26 2130 56.0   3.4 85   15 51.7   0.9 0.7   0.0 NNE | 32 2.2   0.4 0.00 0.01 70.8   4.0 51.2   4.4
Rutherford (STS) 5/5/26 2130 58.1   4.9 84   4 53.4   3.7 1.4   0.3 NE | 45 3.1   0.1 0.00 0.11 70.9   2.9 52.3   9.4
Borreo (Soda Canyon) 5/5/26 2130 55.7   5.0 78   17 49.0   0.4 1.1   0.6 S | 186 3.7   1.2 0.00 0.02 64.4   2.6 50.3   8.7
Oakville-NE (Ranch 88) 5/5/26 2130 58.2   4.9 74   21 49.8   1.9 3.2   3.2 SSE | 166 5.3   5.3 0.00 0.02 70.4   1.7 52.2   9.6
Soda Canyon 5/5/26 2130 57.9   5.1 78   12 51.2   1.0 1.8   1.2 ESE | 118 4.0   2.2 0.00 0.01 65.7   1.9 52.5   12.1
Silver Oak OV 5/5/26 2130 58.5   5.0 73   21 50.1   1.9 3.5   2.0 SSE | 157 6.0   2.7 0.00 0.02 68.7   1.6 52.6   9.8
Tiara Fria (East St. Helena) 5/5/26 2130 59.4   5.7 71   23 50.1   2.1 1.0   0.6 NE | 39 3.1   0.1 0.00 0.01 70.1   3.2 52.9   7.1
To Kalon Remote (TKKE) 5/5/26 2130 58.9   5.2 - - - - - - - 69.2   0.5 52.9   9.9
To Kalon 5/5/26 2130 57.9   4.8 73   22 49.5   2.5 2.8   1.0 WSW | 250 7.5   4.1 0.00 0.02 69.0   2.2 52.4   8.8
To Kalon Remote (TKN5) 5/5/26 2130 58.4   4.6 - - - - - - - 69.6   2.4 52.8   9.3
St. Helena-North 5/5/26 2130 58.4   4.8 69   31 48.3   5.3 1.4   1.0 WNW | 303 4.2   2.6 0.00 0.01 70.6   3.4 52.6   6.2
Twomey Calistoga 5/5/26 2130 57.6   3.9 79   16 51.2   1.2 0.6   0.2 ENE | 66 2.9   0.6 0.00 0.02 67.6   2.1 52.3   7.0
Wappo Hill Floor 5/5/26 2130 58.5   6.6 76   24 50.9   0.9 2.2   0.5 SE | 127 5.4   2.0 0.00 0.03 67.8   1.5 50.2   8.0
Yountville (Ranch 67) 5/5/26 2130 58.0   5.8 72   23 49.1   1.8 2.5   0.7 ESE | 105 6.6   3.1 0.00 0.03 66.9   1.7 51.7   8.5
Max     59.4 85 53.4 4.1 - 7.5 0.00 0.16 71.1 52.9
Avg     58.1 76 50.4 1.8 - 4.4 0.00 - - -
Min     54.9 69 47.9 0.5 - 2.0 0.00 0.01 63.5 47.7